Whitestown, New York
Current Conditions -  °F | °C
As of 3:53 PM on Tuesday 21 Oct 2014 (Local Time) from KRME Reporting Station
Overcast Overcast  
Wind Chill: 52°   Ceiling: 1900
Heat Index: 52°   Visibility: 10mi
Dew Point: 48°   Wind: 6mph
Humidity: 86%   Direction: 100°E
Pressure: 29.91"   Gusts: NA
Location:  43.1203°N, 75.3249°W
Report Text: KRME 211953Z 10005KT 10SM BKN019 OVC035 11/09 A2991 RMK AO2 RAB41E45 SLP127 P0000 T01110089
Loading
Personal Weather Stations






























Interactive Weather Map
Tropical Storm Tracking
New forecast layout! Learn more

10-Day Weather Forecast

Advertisements
Track Severe Weather on mobile